Sandoval, Texas
Current Conditions -  °F | °C
As of 2:58 PM on Thursday 18 Dec 2014 (Local Time) from KGRK Reporting Station
Clear Clear  
Wind Chill: 62°   Ceiling: Unl
Heat Index: 62°   Visibility: 10mi
Dew Point: 53°   Wind: 8mph
Humidity: 72%   Direction: 70°ENE
Pressure: 30.05"   Gusts: NA
Location:  30.5793°N, 97.5096°W
Report Text: KGRK 182058Z AUTO 07007KT 10SM CLR 17/12 A3005 RMK AO2 SLP175 T01650115 56026
Loading
Personal Weather Stations






























Interactive Weather Map New forecast layout! Learn more

10-Day Weather Forecast

Advertisements
Track Severe Weather on mobile